Ana Sayfa
METAR-TAF:

METAR-TAF

Havaalanları :

Bamako, Mali

Enlem: 12-32N, Boylam: 007-57W, yükseklik: 380 m

Güncel hava durumu gözlemi

Rapor saat 21:00 UTC de 24 dakika önce yapıldı.
Rüzgar doğu/kuzeydoğudan 2 kt
Sıcaklık 21°C
Nem 23%
Basınç 1013 hPa
Görüş mesafesi 10 km veya daha fazla
1500 m altında bulut yok ve kümülonimbus yok

METAR: GABS 162100Z 06002KT CAVOK 21/M01 Q1013 NOSIG

Saat: 21:24 (21:24 UTC)

Tahmin

Rapor saat 19:40 UTC de 1 saat ve 44 dakika önce yapıldı.
Ayın 16'si saat 20 UTC'den ayın 17'si saat 24 UTC'ye kadar geçerli Tahmin
Rüzgar kuzeydoğudan 2 kt ve 12 kt'a kadar ani rüzgarlar
Görüş mesafesi 10 km veya daha fazla
1500 m altında bulut yok ve kümülonimbus yok
Olasılık 30% :
Geçici
ayın 17'si saat 08 UTC'den ayın 17'si saat 14 UTC'ye kadar
Görüş mesafesi: 4500 m
Toz Pusu

TAF: GABS 161940Z 1620/1724 05002G12KT CAVOK PROB30 TEMPO 1708/1714 4500 HZ

4.000'den fazla havaalanı için hava durumu gözlemleri ve tahminleri (METAR ve TAF raporları).

Kullanılabilir istasyonlar harita üzerinde sarı ve kırmızı noktalarla gösterilir.

İstasyonun adını görmek için fareyi noktanın üzerinde gezdirin.

Sonrasında hava gözlem ve tahminlerini görmek için tıklayın.

Haritayı değiştirmek için: yaklaştırmak için siyah artı işaretli yeşil düğmeye ve uzaklaştırmak için de eksi işaretli düğmeye hızla tıklayın; bitişik haritalar için yeşil okları kullanın.


METAR-TAF: